createdAt,value
2022-12-06T00:02:04.282Z,2.87
2022-12-06T00:04:35.196Z,2.87
2022-12-06T00:07:06.706Z,2.85
2022-12-06T00:09:37.202Z,2.84
2022-12-06T00:12:08.524Z,2.84
2022-12-06T00:14:39.889Z,2.81
2022-12-06T00:17:10.865Z,2.81
2022-12-06T00:19:41.385Z,2.82
2022-12-06T00:22:12.697Z,2.79
2022-12-06T00:24:43.568Z,2.74
2022-12-06T00:27:14.447Z,2.78
2022-12-06T00:29:45.247Z,2.79
2022-12-06T00:32:19.514Z,2.80
2022-12-06T00:34:50.639Z,2.80
2022-12-06T00:37:21.521Z,2.80
2022-12-06T00:39:52.863Z,2.80
2022-12-06T00:42:23.295Z,2.79
2022-12-06T00:44:54.331Z,2.80
2022-12-06T00:47:24.950Z,2.77
2022-12-06T00:49:56.182Z,2.79
2022-12-06T00:52:27.645Z,2.81
2022-12-06T00:54:58.985Z,2.83
2022-12-06T00:57:30.468Z,2.86
2022-12-06T01:00:01.234Z,2.88
2022-12-06T01:02:32.317Z,2.89
2022-12-06T01:05:03.028Z,2.92
2022-12-06T01:07:34.327Z,2.94
2022-12-06T01:10:06.614Z,2.95
2022-12-06T01:12:37.289Z,2.96
2022-12-06T01:15:09.713Z,2.95
2022-12-06T01:17:40.359Z,2.96
2022-12-06T01:20:12.372Z,2.96
2022-12-06T01:22:43.280Z,2.97
2022-12-06T01:25:13.958Z,2.98
2022-12-06T01:27:45.145Z,2.98
2022-12-06T01:30:16.412Z,2.98
2022-12-06T01:32:46.783Z,2.98
2022-12-06T01:35:17.808Z,2.97
2022-12-06T01:37:48.231Z,2.98
2022-12-06T01:40:19.166Z,2.97
2022-12-06T01:42:49.475Z,2.97
2022-12-06T01:45:20.532Z,2.97
2022-12-06T01:47:51.120Z,2.97
2022-12-06T01:50:25.625Z,2.95
2022-12-06T01:53:00.991Z,2.94
2022-12-06T01:55:36.052Z,2.93
2022-12-06T01:58:12.215Z,2.92
2022-12-06T02:00:42.691Z,2.91
2022-12-06T02:03:19.139Z,2.89
2022-12-06T02:05:50.877Z,2.87
2022-12-06T02:08:23.207Z,2.86
2022-12-06T02:10:55.037Z,2.83
2022-12-06T02:13:27.096Z,2.83
2022-12-06T02:16:07.238Z,2.82
2022-12-06T02:18:46.420Z,2.79
2022-12-06T02:21:25.932Z,2.76
2022-12-06T02:24:37.491Z,2.75
2022-12-06T02:27:25.710Z,2.72
2022-12-06T02:30:10.862Z,2.75
2022-12-06T02:32:54.454Z,2.76
2022-12-06T02:35:34.791Z,2.77
2022-12-06T02:38:13.184Z,2.77
2022-12-06T02:40:48.136Z,2.76
2022-12-06T02:43:22.929Z,2.74
2022-12-06T02:45:58.354Z,2.74
2022-12-06T02:48:29.270Z,2.74
2022-12-06T02:51:03.418Z,2.73
2022-12-06T02:53:38.226Z,2.73
2022-12-06T02:56:10.271Z,2.74
2022-12-06T02:58:40.761Z,2.75
2022-12-06T03:01:15.271Z,2.76
2022-12-06T03:04:00.869Z,2.74
2022-12-06T03:06:42.378Z,2.77
2022-12-06T03:09:26.211Z,2.77
2022-12-06T03:12:05.749Z,2.78
2022-12-06T03:14:43.133Z,2.76
2022-12-06T03:17:23.729Z,2.75
2022-12-06T03:20:00.600Z,2.73
2022-12-06T03:22:39.579Z,2.76
2022-12-06T03:25:12.052Z,2.76
2022-12-06T03:27:44.391Z,2.75
2022-12-06T03:30:17.013Z,2.77
2022-12-06T03:32:51.149Z,2.75
2022-12-06T03:35:25.240Z,2.75
2022-12-06T03:38:04.205Z,2.75
2022-12-06T03:40:38.113Z,2.74
2022-12-06T03:43:08.882Z,2.72
2022-12-06T03:45:44.441Z,2.71
2022-12-06T03:48:19.718Z,2.67
2022-12-06T03:50:58.578Z,2.68
2022-12-06T03:53:29.432Z,2.67
2022-12-06T03:56:00.718Z,2.65
2022-12-06T03:58:31.317Z,2.62
2022-12-06T04:01:04.931Z,2.61
2022-12-06T04:03:36.084Z,2.58
2022-12-06T04:06:08.344Z,2.61
2022-12-06T04:08:39.321Z,2.60
2022-12-06T04:11:09.675Z,2.59
2022-12-06T04:13:40.965Z,2.56
2022-12-06T04:16:25.834Z,2.53
2022-12-06T04:18:56.977Z,2.53
2022-12-06T04:21:45.336Z,2.51
2022-12-06T04:24:16.453Z,2.51
2022-12-06T04:26:46.811Z,2.50
2022-12-06T04:29:35.013Z,2.49
2022-12-06T04:32:23.744Z,2.48
2022-12-06T04:35:12.130Z,2.47
2022-12-06T04:38:00.501Z,2.47
2022-12-06T04:40:31.438Z,2.48
2022-12-06T04:43:19.516Z,2.48
2022-12-06T04:45:49.876Z,2.49
2022-12-06T04:48:20.625Z,2.49
2022-12-06T04:50:51.884Z,2.50
2022-12-06T04:53:22.205Z,2.50
2022-12-06T04:55:52.935Z,2.50
2022-12-06T04:58:23.324Z,2.51
2022-12-06T05:00:55.106Z,2.52
2022-12-06T05:03:25.653Z,2.54
2022-12-06T05:05:56.769Z,2.55
2022-12-06T05:08:27.216Z,2.56
2022-12-06T05:10:57.761Z,2.56
2022-12-06T05:13:28.486Z,2.58
2022-12-06T05:16:00.570Z,2.59
2022-12-06T05:18:32.188Z,2.59
2022-12-06T05:21:08.124Z,2.60
2022-12-06T05:23:38.673Z,2.59
2022-12-06T05:26:12.876Z,2.58
2022-12-06T05:28:49.016Z,2.60
2022-12-06T05:31:20.902Z,2.61
2022-12-06T05:33:51.967Z,2.60
2022-12-06T05:36:24.373Z,2.59
2022-12-06T05:38:55.596Z,2.59
2022-12-06T05:41:26.276Z,2.59
2022-12-06T05:43:57.264Z,2.59
2022-12-06T05:46:28.306Z,2.59
2022-12-06T05:48:58.951Z,2.59
2022-12-06T05:51:29.329Z,2.59
2022-12-06T05:54:02.896Z,2.58
2022-12-06T05:56:33.626Z,2.58
2022-12-06T05:59:04.372Z,2.58
2022-12-06T06:01:35.192Z,2.59
2022-12-06T06:04:05.959Z,2.58
2022-12-06T06:06:36.873Z,2.56
2022-12-06T06:09:07.413Z,2.54
2022-12-06T06:11:37.857Z,2.51
2022-12-06T06:14:08.246Z,2.50
2022-12-06T06:16:38.618Z,2.50
2022-12-06T06:19:09.124Z,2.49
2022-12-06T06:21:39.458Z,2.47
2022-12-06T06:24:10.641Z,2.47
2022-12-06T06:26:41.072Z,2.44
2022-12-06T06:29:11.467Z,2.43
2022-12-06T06:31:42.171Z,2.41
2022-12-06T06:34:12.871Z,2.40
2022-12-06T06:36:45.905Z,2.39
2022-12-06T06:39:17.088Z,2.37
2022-12-06T06:41:48.028Z,2.35
2022-12-06T06:44:18.496Z,2.35
2022-12-06T06:46:48.819Z,2.34
2022-12-06T06:49:19.258Z,2.34
2022-12-06T06:51:50.785Z,2.32
2022-12-06T06:54:22.105Z,2.31
2022-12-06T06:56:53.054Z,2.31
2022-12-06T06:59:23.805Z,2.31
2022-12-06T07:01:54.991Z,2.32
2022-12-06T07:04:25.877Z,2.33
2022-12-06T07:06:56.524Z,2.35
2022-12-06T07:09:27.278Z,2.35
2022-12-06T07:11:58.477Z,2.37
2022-12-06T07:14:29.566Z,2.38
2022-12-06T07:17:00.952Z,2.38
2022-12-06T07:19:31.696Z,2.39
2022-12-06T07:22:02.552Z,2.39
2022-12-06T07:24:38.325Z,2.40
2022-12-06T07:27:12.088Z,2.39
2022-12-06T07:29:42.833Z,2.39
2022-12-06T07:32:13.147Z,2.40
2022-12-06T07:34:44.093Z,2.40
2022-12-06T07:37:15.152Z,2.41
2022-12-06T07:39:46.189Z,2.42
2022-12-06T07:42:34.522Z,2.42
2022-12-06T07:45:08.743Z,2.42
2022-12-06T07:47:40.862Z,2.42
2022-12-06T07:50:18.160Z,2.42
2022-12-06T07:52:50.496Z,2.42
2022-12-06T07:55:22.044Z,2.41
2022-12-06T07:57:52.801Z,2.40
2022-12-06T08:00:24.478Z,2.41
2022-12-06T08:02:55.480Z,2.42
2022-12-06T08:05:26.686Z,2.43
2022-12-06T08:07:57.080Z,2.43
2022-12-06T08:10:27.720Z,2.43
2022-12-06T08:12:58.903Z,2.43
2022-12-06T08:15:29.497Z,2.43
2022-12-06T08:18:00.199Z,2.43
2022-12-06T08:20:30.952Z,2.44
2022-12-06T08:23:01.597Z,2.45
2022-12-06T08:25:32.369Z,2.46
2022-12-06T08:28:03.303Z,2.47
2022-12-06T08:30:33.993Z,2.48
2022-12-06T08:33:05.102Z,2.48
2022-12-06T08:35:38.737Z,2.49
2022-12-06T08:38:09.831Z,2.51
2022-12-06T08:40:40.408Z,2.53
2022-12-06T08:43:11.724Z,2.54
2022-12-06T08:45:42.627Z,2.56
2022-12-06T08:48:13.285Z,2.58
2022-12-06T08:50:44.070Z,2.60
2022-12-06T08:53:14.740Z,2.64
2022-12-06T08:55:58.760Z,2.66
2022-12-06T08:58:32.943Z,2.70
2022-12-06T09:01:10.077Z,2.74
2022-12-06T09:03:40.995Z,2.77
2022-12-06T09:06:12.765Z,2.80
2022-12-06T09:08:43.811Z,2.83
2022-12-06T09:11:15.238Z,2.86
2022-12-06T09:13:46.240Z,2.89
2022-12-06T09:16:18.962Z,2.91
2022-12-06T09:18:51.387Z,2.91
2022-12-06T09:21:23.731Z,2.92
2022-12-06T09:23:57.544Z,2.93
2022-12-06T09:26:28.892Z,2.94
2022-12-06T09:28:59.895Z,2.95
2022-12-06T09:31:30.310Z,2.97
2022-12-06T09:34:01.172Z,2.98
2022-12-06T09:36:33.177Z,2.98
2022-12-06T09:39:06.881Z,2.99
2022-12-06T09:42:01.345Z,3.00
2022-12-06T09:44:49.591Z,3.01
2022-12-06T09:47:33.645Z,3.02
2022-12-06T09:50:13.498Z,3.03
2022-12-06T09:53:01.322Z,3.03
2022-12-06T09:55:36.932Z,3.05
2022-12-06T09:58:20.327Z,3.06
2022-12-06T10:00:59.782Z,3.06
2022-12-06T10:03:49.897Z,3.08
2022-12-06T10:06:24.455Z,3.09
2022-12-06T10:09:12.210Z,3.09
2022-12-06T10:11:50.147Z,3.11
2022-12-06T10:14:22.631Z,3.13
2022-12-06T10:17:04.152Z,3.13
2022-12-06T10:19:49.962Z,3.14
2022-12-06T10:22:25.689Z,3.15
2022-12-06T10:25:09.234Z,3.15
2022-12-06T10:27:47.281Z,3.16
2022-12-06T10:30:16.942Z,3.17
2022-12-06T10:33:05.565Z,3.18
2022-12-06T10:35:46.068Z,3.20
2022-12-06T10:38:25.103Z,3.21
2022-12-06T10:41:06.110Z,3.22
2022-12-06T10:43:45.209Z,3.24
2022-12-06T10:46:39.480Z,3.25
2022-12-06T10:49:20.559Z,3.27
2022-12-06T10:51:59.924Z,3.30
2022-12-06T10:54:36.690Z,3.32
2022-12-06T10:57:20.621Z,3.34
2022-12-06T11:00:02.964Z,3.35
2022-12-06T11:02:40.149Z,3.38
2022-12-06T11:05:20.058Z,3.40
2022-12-06T11:07:54.127Z,3.42
2022-12-06T11:10:27.916Z,3.46
2022-12-06T11:13:03.212Z,3.48
2022-12-06T11:15:36.899Z,3.50
2022-12-06T11:18:13.332Z,3.51
2022-12-06T11:20:49.332Z,3.53
2022-12-06T11:23:27.540Z,3.55
2022-12-06T11:26:07.891Z,3.57
2022-12-06T11:28:41.783Z,3.58
2022-12-06T11:31:25.918Z,3.59
2022-12-06T11:33:57.655Z,3.60
2022-12-06T11:36:29.438Z,3.62
2022-12-06T11:39:00.989Z,3.63
2022-12-06T11:41:37.770Z,3.64
2022-12-06T11:44:11.690Z,3.66
2022-12-06T11:46:42.288Z,3.67
2022-12-06T11:49:22.614Z,3.69
2022-12-06T11:51:54.473Z,3.71
2022-12-06T11:54:28.921Z,3.71
2022-12-06T11:57:05.237Z,3.73
2022-12-06T11:59:35.834Z,3.75
2022-12-06T12:02:07.227Z,3.76
2022-12-06T12:04:40.555Z,3.77
2022-12-06T12:07:18.343Z,3.77
2022-12-06T12:09:52.989Z,3.78
2022-12-06T12:12:25.213Z,3.79
2022-12-06T12:14:59.643Z,3.78
2022-12-06T12:17:33.141Z,3.79
2022-12-06T12:20:06.599Z,3.80
2022-12-06T12:22:40.322Z,3.81
2022-12-06T12:25:27.556Z,3.82
2022-12-06T12:28:00.084Z,3.84
2022-12-06T12:30:36.823Z,3.86
2022-12-06T12:33:24.455Z,3.87
2022-12-06T12:35:57.932Z,3.88
2022-12-06T12:38:39.146Z,3.89
2022-12-06T12:41:27.441Z,3.90
2022-12-06T12:44:28.921Z,3.88
2022-12-06T12:46:57.412Z,3.86
2022-12-06T12:49:31.447Z,3.86
2022-12-06T12:52:03.587Z,3.85
2022-12-06T12:54:36.276Z,3.83
2022-12-06T12:57:14.570Z,3.82
2022-12-06T12:59:45.873Z,3.82
2022-12-06T13:02:23.230Z,3.82
2022-12-06T13:05:17.320Z,3.82
2022-12-06T13:07:50.526Z,3.83
2022-12-06T13:10:28.332Z,3.83
2022-12-06T13:13:02.804Z,3.83
2022-12-06T13:15:36.855Z,3.82
2022-12-06T13:18:15.341Z,3.82
2022-12-06T13:20:47.112Z,3.83
2022-12-06T13:23:20.147Z,3.83
2022-12-06T13:26:03.019Z,3.84
2022-12-06T13:28:41.135Z,3.83
2022-12-06T13:31:16.969Z,3.82
2022-12-06T13:33:54.838Z,3.82
2022-12-06T13:36:26.951Z,3.82
2022-12-06T13:38:57.456Z,3.82
2022-12-06T13:42:12.649Z,3.82
2022-12-06T13:44:51.868Z,3.81
2022-12-06T13:47:59.398Z,3.80
2022-12-06T13:50:54.310Z,3.80
2022-12-06T13:53:26.434Z,3.80
2022-12-06T13:56:01.361Z,3.80
2022-12-06T13:58:53.105Z,3.79
2022-12-06T14:01:52.978Z,3.79
2022-12-06T14:04:39.522Z,3.78
2022-12-06T14:09:46.456Z,3.78
2022-12-06T14:12:22.527Z,3.79
2022-12-06T14:15:00.679Z,3.79
2022-12-06T14:20:32.871Z,3.80
2022-12-06T14:23:03.586Z,3.80
2022-12-06T14:25:34.267Z,3.79
2022-12-06T14:28:07.609Z,3.79
2022-12-06T14:30:39.287Z,3.78
2022-12-06T14:33:22.393Z,3.77
2022-12-06T14:35:56.680Z,3.77
2022-12-06T14:38:30.446Z,3.77
2022-12-06T14:41:18.332Z,3.76
2022-12-06T14:43:48.782Z,3.75
2022-12-06T14:46:21.755Z,3.72
2022-12-06T14:49:10.072Z,3.72
2022-12-06T14:51:41.906Z,3.69
2022-12-06T14:54:35.157Z,3.68
2022-12-06T14:57:19.388Z,3.67
2022-12-06T15:00:15.145Z,3.65
2022-12-06T15:03:16.355Z,3.64
2022-12-06T15:05:50.131Z,3.61
2022-12-06T15:08:35.357Z,3.62
2022-12-06T15:11:07.629Z,3.62
2022-12-06T15:13:38.243Z,3.61
2022-12-06T15:16:25.317Z,3.60
2022-12-06T15:19:01.305Z,3.59
2022-12-06T15:21:31.810Z,3.58
2022-12-06T15:24:02.215Z,3.57
2022-12-06T15:26:32.663Z,3.57
2022-12-06T15:29:03.051Z,3.55
2022-12-06T15:31:35.064Z,3.53
2022-12-06T15:34:25.279Z,3.51
2022-12-06T15:37:22.333Z,3.49
2022-12-06T15:39:48.480Z,3.48
2022-12-06T15:42:22.145Z,3.46
2022-12-06T15:44:52.968Z,3.45
2022-12-06T15:47:23.339Z,3.44
2022-12-06T15:49:54.377Z,3.43
2022-12-06T15:52:24.884Z,3.40
2022-12-06T15:54:55.340Z,3.39
2022-12-06T15:57:26.077Z,3.38
2022-12-06T15:59:58.277Z,3.38
2022-12-06T16:02:28.706Z,3.38
2022-12-06T16:04:59.914Z,3.37
2022-12-06T16:07:31.217Z,3.37
2022-12-06T16:10:01.921Z,3.37
2022-12-06T16:12:52.374Z,3.36
2022-12-06T16:15:23.694Z,3.36
2022-12-06T16:17:54.762Z,3.35
2022-12-06T16:20:35.082Z,3.35
2022-12-06T16:23:43.085Z,3.34
2022-12-06T16:26:19.439Z,3.35
2022-12-06T16:28:50.276Z,3.35
2022-12-06T16:31:21.135Z,3.35
2022-12-06T16:33:52.206Z,3.34
2022-12-06T16:36:25.271Z,3.33
2022-12-06T16:38:57.662Z,3.32
2022-12-06T16:41:29.975Z,3.32
2022-12-06T16:44:01.509Z,3.30
2022-12-06T16:46:33.719Z,3.29
2022-12-06T16:49:43.750Z,3.29
2022-12-06T16:51:57.239Z,3.30
2022-12-06T16:54:27.614Z,3.30
2022-12-06T16:56:58.513Z,3.31
2022-12-06T16:59:28.875Z,3.31
2022-12-06T17:02:00.637Z,3.32
2022-12-06T17:04:31.546Z,3.32
2022-12-06T17:07:02.285Z,3.32
2022-12-06T17:09:32.939Z,3.31
2022-12-06T17:12:06.207Z,3.31
2022-12-06T17:14:37.912Z,3.30
2022-12-06T17:17:13.296Z,3.31
2022-12-06T17:19:44.285Z,3.32
2022-12-06T17:22:17.346Z,3.32
2022-12-06T17:24:48.201Z,3.33
2022-12-06T17:27:19.192Z,3.33
2022-12-06T17:29:49.561Z,3.33
2022-12-06T17:32:20.525Z,3.33
2022-12-06T17:34:50.977Z,3.33
2022-12-06T17:37:21.772Z,3.35
2022-12-06T17:39:52.466Z,3.36
2022-12-06T17:42:40.704Z,3.37
2022-12-06T17:45:12.672Z,3.37
2022-12-06T17:47:43.012Z,3.38
2022-12-06T17:50:14.282Z,3.38
2022-12-06T17:52:44.713Z,3.38
2022-12-06T17:55:16.840Z,3.40
2022-12-06T17:57:47.280Z,3.42
2022-12-06T18:00:22.577Z,3.43
2022-12-06T18:02:53.280Z,3.43
2022-12-06T18:05:23.915Z,3.42
2022-12-06T18:07:54.700Z,3.42
2022-12-06T18:10:25.841Z,3.41
2022-12-06T18:13:01.201Z,3.42
2022-12-06T18:15:39.105Z,3.43
2022-12-06T18:18:09.646Z,3.45
2022-12-06T18:20:43.013Z,3.47
2022-12-06T18:23:13.906Z,3.48
2022-12-06T18:25:44.543Z,3.51
2022-12-06T18:28:15.178Z,3.53
2022-12-06T18:30:45.844Z,3.53
2022-12-06T18:33:20.946Z,3.54
2022-12-06T18:35:54.654Z,3.54
2022-12-06T18:38:25.631Z,3.54
2022-12-06T18:41:04.659Z,3.57
2022-12-06T18:43:35.730Z,3.57
2022-12-06T18:46:08.710Z,3.57
2022-12-06T18:48:42.616Z,3.56
2022-12-06T18:51:15.601Z,3.54
2022-12-06T18:53:46.417Z,3.54
2022-12-06T18:56:18.589Z,3.53
2022-12-06T18:58:50.219Z,3.55
2022-12-06T19:01:23.303Z,3.54
2022-12-06T19:03:55.672Z,3.53
2022-12-06T19:06:28.375Z,3.54
2022-12-06T19:09:01.681Z,3.54
2022-12-06T19:11:32.751Z,3.56
2022-12-06T19:14:03.278Z,3.57
2022-12-06T19:16:38.240Z,3.57
2022-12-06T19:19:15.801Z,3.57
2022-12-06T19:21:48.052Z,3.56
2022-12-06T19:24:21.566Z,3.57
2022-12-06T19:26:53.342Z,3.56
2022-12-06T19:29:24.195Z,3.56
2022-12-06T19:31:54.773Z,3.58
2022-12-06T19:34:27.006Z,3.59
2022-12-06T19:36:58.231Z,3.61
2022-12-06T19:39:29.256Z,3.61
2022-12-06T19:42:18.051Z,3.61
2022-12-06T19:44:48.841Z,3.59
2022-12-06T19:47:19.337Z,3.56
2022-12-06T19:49:50.090Z,3.52
2022-12-06T19:52:20.826Z,3.50
2022-12-06T19:54:51.325Z,3.48
2022-12-06T19:57:22.066Z,3.46
2022-12-06T19:59:55.160Z,3.45
2022-12-06T20:02:25.979Z,3.46
2022-12-06T20:04:57.099Z,3.47
2022-12-06T20:07:27.913Z,3.47
2022-12-06T20:09:58.779Z,3.47
2022-12-06T20:12:29.300Z,3.47
2022-12-06T20:14:59.736Z,3.45
2022-12-06T20:17:30.490Z,3.43
2022-12-06T20:20:02.152Z,3.39
2022-12-06T20:22:33.234Z,3.37
2022-12-06T20:25:04.604Z,3.35
2022-12-06T20:27:54.393Z,3.33
2022-12-06T20:30:25.744Z,3.30
2022-12-06T20:32:56.802Z,3.26
2022-12-06T20:35:27.752Z,3.22
2022-12-06T20:37:58.549Z,3.21
2022-12-06T20:40:31.636Z,3.21
2022-12-06T20:43:03.110Z,3.21
2022-12-06T20:45:33.820Z,3.22
2022-12-06T20:48:05.054Z,3.22
2022-12-06T20:50:35.769Z,3.22
2022-12-06T20:53:07.224Z,3.22
2022-12-06T20:55:38.430Z,3.22
2022-12-06T20:58:08.864Z,3.21
2022-12-06T21:00:42.867Z,3.25
2022-12-06T21:03:13.332Z,3.26
2022-12-06T21:05:45.383Z,3.28
2022-12-06T21:08:16.752Z,3.29
2022-12-06T21:11:20.696Z,3.29
2022-12-06T21:13:38.951Z,3.31
2022-12-06T21:16:13.635Z,3.33
2022-12-06T21:18:46.201Z,3.34
2022-12-06T21:21:25.497Z,3.35
2022-12-06T21:23:56.289Z,3.35
2022-12-06T21:26:27.206Z,3.35
2022-12-06T21:28:58.551Z,3.34
2022-12-06T21:31:30.900Z,3.30
2022-12-06T21:34:02.177Z,3.23
2022-12-06T21:36:33.105Z,3.18
2022-12-06T21:39:03.841Z,3.13
2022-12-06T21:41:35.044Z,3.06
2022-12-06T21:44:06.711Z,3.01
2022-12-06T21:46:37.558Z,2.95
2022-12-06T21:49:10.739Z,2.89
2022-12-06T21:51:41.876Z,2.86
2022-12-06T21:54:16.546Z,2.83
2022-12-06T21:56:48.661Z,2.81
2022-12-06T21:59:19.431Z,2.79
2022-12-06T22:01:52.187Z,2.79
2022-12-06T22:04:26.078Z,2.78
2022-12-06T22:06:56.451Z,2.77
2022-12-06T22:09:26.990Z,2.77
2022-12-06T22:11:59.077Z,2.76
2022-12-06T22:14:29.945Z,2.74
2022-12-06T22:17:00.643Z,2.73
2022-12-06T22:19:32.944Z,2.71
2022-12-06T22:22:05.779Z,2.70
2022-12-06T22:24:36.718Z,2.70
2022-12-06T22:27:07.928Z,2.69
2022-12-06T22:29:38.361Z,2.69
2022-12-06T22:32:09.060Z,2.67
2022-12-06T22:34:39.529Z,2.70
2022-12-06T22:37:10.655Z,2.70
2022-12-06T22:39:41.044Z,2.69
2022-12-06T22:42:11.782Z,2.68
2022-12-06T22:44:42.509Z,2.68
2022-12-06T22:47:13.303Z,2.67
2022-12-06T22:49:43.822Z,2.67
2022-12-06T22:52:15.594Z,2.67
2022-12-06T22:54:52.078Z,2.68
2022-12-06T22:57:22.553Z,2.69
2022-12-06T22:59:53.681Z,2.71
2022-12-06T23:02:24.650Z,2.72
2022-12-06T23:04:55.606Z,2.73
2022-12-06T23:07:27.810Z,2.75
2022-12-06T23:09:59.671Z,2.77
2022-12-06T23:12:30.714Z,2.79
2022-12-06T23:15:01.278Z,2.80
2022-12-06T23:17:32.436Z,2.82
2022-12-06T23:20:05.732Z,2.83
2022-12-06T23:22:36.370Z,2.83
2022-12-06T23:25:10.282Z,2.82
2022-12-06T23:27:40.978Z,2.83
2022-12-06T23:30:13.657Z,2.84
2022-12-06T23:32:44.357Z,2.86
2022-12-06T23:35:15.353Z,2.88
2022-12-06T23:37:46.414Z,2.90
2022-12-06T23:40:17.537Z,2.92
2022-12-06T23:42:50.932Z,2.91
2022-12-06T23:45:25.179Z,2.93
2022-12-06T23:47:56.187Z,2.95
2022-12-06T23:50:26.910Z,2.98
2022-12-06T23:52:57.894Z,3.00
2022-12-06T23:55:28.272Z,3.02
2022-12-06T23:57:58.651Z,3.03
